createdAt,value
2019-04-27T00:02:23.068Z,10.10
2019-04-27T00:04:58.221Z,10.10
2019-04-27T00:07:29.602Z,10.10
2019-04-27T00:10:00.144Z,10.10
2019-04-27T00:12:33.061Z,10.10
2019-04-27T00:15:03.434Z,10.10
2019-04-27T00:17:56.897Z,10.10
2019-04-27T00:20:26.274Z,10.00
2019-04-27T00:23:00.398Z,10.00
2019-04-27T00:25:30.310Z,10.00
2019-04-27T00:28:00.031Z,10.00
2019-04-27T00:30:29.908Z,10.00
2019-04-27T00:32:59.742Z,10.00
2019-04-27T00:35:31.481Z,10.00
2019-04-27T00:38:10.189Z,10.00
2019-04-27T00:40:38.528Z,10.10
2019-04-27T00:43:08.404Z,10.00
2019-04-27T00:45:38.454Z,10.00
2019-04-27T00:48:08.528Z,10.00
2019-04-27T00:50:39.338Z,9.90
2019-04-27T00:53:09.201Z,9.80
2019-04-27T00:55:40.734Z,9.80
2019-04-27T00:58:13.586Z,9.80
2019-04-27T01:00:50.214Z,9.80
2019-04-27T01:03:22.864Z,9.70
2019-04-27T01:05:54.114Z,9.70
2019-04-27T01:08:23.898Z,9.60
2019-04-27T01:10:53.857Z,9.60
2019-04-27T01:13:23.613Z,9.60
2019-04-27T01:15:54.162Z,9.60
2019-04-27T01:18:25.767Z,9.50
2019-04-27T01:20:59.096Z,9.40
2019-04-27T01:23:29.412Z,9.40
2019-04-27T01:26:03.574Z,9.30
2019-04-27T01:28:34.850Z,9.30
2019-04-27T01:31:11.958Z,9.30
2019-04-27T01:36:10.964Z,9.30
2019-04-27T01:38:41.071Z,9.30
2019-04-27T01:41:11.064Z,9.20
2019-04-27T01:43:43.366Z,9.20
2019-04-27T01:46:13.259Z,9.20
2019-04-27T01:48:43.105Z,9.20
2019-04-27T01:53:41.993Z,9.10
2019-04-27T01:56:11.792Z,9.00
2019-04-27T01:58:41.445Z,9.00
2019-04-27T02:01:24.221Z,9.10
2019-04-27T02:04:14.644Z,9.10
2019-04-27T02:06:45.994Z,9.00
2019-04-27T02:09:18.794Z,9.00
2019-04-27T02:11:49.092Z,9.00
2019-04-27T02:14:19.604Z,9.00
2019-04-27T02:16:49.483Z,9.00
2019-04-27T02:19:19.494Z,9.00
2019-04-27T02:21:51.497Z,9.00
2019-04-27T02:24:20.263Z,9.00
2019-04-27T02:26:50.543Z,8.90
2019-04-27T02:29:25.674Z,8.90
2019-04-27T02:32:13.340Z,8.90
2019-04-27T02:34:57.047Z,8.90
2019-04-27T02:37:26.779Z,8.80
2019-04-27T02:39:56.751Z,8.80
2019-04-27T02:42:29.767Z,8.80
2019-04-27T02:44:59.891Z,8.80
2019-04-27T02:47:29.647Z,8.80
2019-04-27T02:50:01.563Z,8.80
2019-04-27T02:52:32.977Z,8.80
2019-04-27T02:55:01.777Z,8.80
2019-04-27T02:57:32.558Z,8.70
2019-04-27T03:02:35.050Z,8.70
2019-04-27T03:05:05.755Z,8.60
2019-04-27T03:07:35.929Z,8.60
2019-04-27T03:10:09.687Z,8.60
2019-04-27T03:12:42.318Z,8.50
2019-04-27T03:15:16.147Z,8.60
2019-04-27T03:17:49.385Z,8.50
2019-04-27T03:20:23.014Z,8.50
2019-04-27T03:22:54.375Z,8.50
2019-04-27T03:25:26.470Z,8.50
2019-04-27T03:30:31.776Z,8.50
2019-04-27T03:33:02.691Z,8.50
2019-04-27T03:35:35.273Z,8.50
2019-04-27T03:38:02.399Z,8.40
2019-04-27T03:40:31.987Z,8.50
2019-04-27T03:43:04.276Z,8.50
2019-04-27T03:45:36.367Z,8.40
2019-04-27T03:48:05.301Z,8.40
2019-04-27T03:50:39.810Z,8.40
2019-04-27T03:53:29.276Z,8.40
2019-04-27T03:56:16.019Z,8.40
2019-04-27T03:58:50.233Z,8.40
2019-04-27T04:01:20.422Z,8.40
2019-04-27T04:03:50.440Z,8.40
2019-04-27T04:06:21.722Z,8.40
2019-04-27T04:08:55.002Z,8.40
2019-04-27T04:11:32.578Z,8.40
2019-04-27T04:16:40.858Z,8.30
2019-04-27T04:19:13.676Z,8.40
2019-04-27T04:21:43.723Z,8.40
2019-04-27T04:24:13.358Z,8.40
2019-04-27T04:26:43.122Z,8.40
2019-04-27T04:29:12.907Z,8.50
2019-04-27T04:31:42.650Z,8.50
2019-04-27T04:34:15.060Z,8.50
2019-04-27T04:36:44.708Z,8.50
2019-04-27T04:39:14.451Z,8.60
2019-04-27T04:41:50.654Z,8.60
2019-04-27T04:44:21.139Z,8.60
2019-04-27T04:47:02.181Z,8.60
2019-04-27T04:49:31.750Z,8.60
2019-04-27T04:52:01.630Z,8.60
2019-04-27T04:54:31.253Z,8.60
2019-04-27T04:57:01.079Z,8.60
2019-04-27T04:59:31.933Z,8.60
2019-04-27T05:02:02.473Z,8.60
2019-04-27T05:04:32.424Z,8.60
2019-04-27T05:07:02.132Z,8.60
2019-04-27T05:09:31.819Z,8.60
2019-04-27T05:12:01.685Z,8.60
2019-04-27T05:14:31.487Z,8.70
2019-04-27T05:17:01.169Z,8.80
2019-04-27T05:19:31.359Z,8.80
2019-04-27T05:22:01.131Z,8.80
2019-04-27T05:24:30.863Z,8.90
2019-04-27T05:27:00.535Z,9.00
2019-04-27T05:29:33.092Z,9.00
2019-04-27T05:32:02.888Z,9.10
2019-04-27T05:34:32.544Z,9.10
2019-04-27T05:37:02.518Z,9.20
2019-04-27T05:39:32.264Z,9.20
2019-04-27T05:42:03.252Z,9.20
2019-04-27T05:45:15.335Z,9.30
2019-04-27T05:47:48.401Z,9.30
2019-04-27T05:50:20.093Z,9.30
2019-04-27T05:52:49.509Z,9.30
2019-04-27T05:55:19.215Z,9.20
2019-04-27T05:57:49.105Z,9.20
2019-04-27T06:00:20.644Z,9.20
2019-04-27T06:02:50.337Z,9.20
2019-04-27T06:05:22.579Z,9.30
2019-04-27T06:07:51.376Z,9.20
2019-04-27T06:10:21.159Z,9.30
2019-04-27T06:12:52.637Z,9.30
2019-04-27T06:15:28.371Z,9.40
2019-04-27T06:17:59.651Z,9.50
2019-04-27T06:20:29.292Z,9.50
2019-04-27T06:22:59.423Z,9.50
2019-04-27T06:25:30.517Z,9.60
2019-04-27T06:28:00.022Z,9.50
2019-04-27T06:30:29.732Z,9.50
2019-04-27T06:32:59.497Z,9.50
2019-04-27T06:35:29.651Z,9.40
2019-04-27T06:37:59.324Z,9.40
2019-04-27T06:40:29.129Z,9.40
2019-04-27T06:43:01.423Z,9.40
2019-04-27T06:45:31.138Z,9.40
2019-04-27T06:48:03.723Z,9.20
2019-04-27T06:50:33.794Z,9.20
2019-04-27T06:53:03.526Z,9.10
2019-04-27T06:55:34.937Z,9.10
2019-04-27T06:58:04.791Z,9.10
2019-04-27T07:00:34.525Z,9.10
2019-04-27T07:03:04.366Z,9.10
2019-04-27T07:05:34.302Z,9.20
2019-04-27T07:08:04.111Z,9.20
2019-04-27T07:10:33.927Z,9.20
2019-04-27T07:13:04.825Z,9.20
2019-04-27T07:15:36.182Z,9.20
2019-04-27T07:18:05.909Z,9.10
2019-04-27T07:20:35.592Z,9.00
2019-04-27T07:23:07.109Z,9.00
2019-04-27T07:25:38.775Z,8.90
2019-04-27T07:28:09.180Z,8.90
2019-04-27T07:30:39.081Z,8.90
2019-04-27T07:33:08.844Z,8.90
2019-04-27T07:35:39.329Z,8.90
2019-04-27T07:38:09.955Z,8.80
2019-04-27T07:40:41.816Z,8.70
2019-04-27T07:43:12.602Z,8.70
2019-04-27T07:45:41.877Z,8.70
2019-04-27T07:48:11.614Z,8.80
2019-04-27T07:50:41.457Z,8.80
2019-04-27T07:53:11.034Z,8.80
2019-04-27T07:55:40.565Z,9.00
2019-04-27T07:58:10.306Z,9.00
2019-04-27T08:00:40.094Z,9.10
2019-04-27T08:03:10.877Z,9.30
2019-04-27T08:05:40.602Z,9.30
2019-04-27T08:08:10.561Z,9.40
2019-04-27T08:10:40.214Z,9.40
2019-04-27T08:13:09.832Z,9.40
2019-04-27T08:15:39.748Z,9.40
2019-04-27T08:18:12.290Z,9.40
2019-04-27T08:20:41.933Z,9.40
2019-04-27T08:23:11.499Z,9.50
2019-04-27T08:25:41.106Z,9.60
2019-04-27T08:28:12.348Z,9.60
2019-04-27T08:30:43.708Z,9.10
2019-04-27T08:33:14.121Z,9.60
2019-04-27T08:35:44.146Z,9.60
2019-04-27T08:38:13.767Z,9.60
2019-04-27T08:40:43.476Z,9.60
2019-04-27T08:43:13.920Z,9.60
2019-04-27T08:45:43.667Z,9.70
2019-04-27T08:48:13.443Z,9.70
2019-04-27T08:50:43.115Z,9.70
2019-04-27T08:53:12.758Z,9.70
2019-04-27T08:55:42.432Z,9.80
2019-04-27T08:58:12.175Z,9.80
2019-04-27T09:00:41.892Z,9.90
2019-04-27T09:03:11.709Z,9.90
2019-04-27T09:05:41.528Z,9.90
2019-04-27T09:08:19.108Z,10.00
2019-04-27T09:10:56.558Z,10.00
2019-04-27T09:13:30.402Z,10.10
2019-04-27T09:16:02.054Z,10.30
2019-04-27T09:21:04.482Z,10.30
2019-04-27T09:23:34.360Z,10.40
2019-04-27T09:26:04.146Z,10.60
2019-04-27T09:28:33.878Z,10.50
2019-04-27T09:31:03.595Z,10.60
2019-04-27T09:33:33.276Z,10.80
2019-04-27T09:36:03.040Z,10.80
2019-04-27T09:38:32.991Z,11.00
2019-04-27T09:41:02.917Z,11.00
2019-04-27T09:43:32.639Z,11.00
2019-04-27T09:46:02.513Z,11.00
2019-04-27T09:48:32.537Z,11.00
2019-04-27T09:51:02.617Z,11.00
2019-04-27T09:53:33.524Z,11.10
2019-04-27T09:56:07.815Z,11.20
2019-04-27T09:58:37.758Z,11.20
2019-04-27T10:01:08.453Z,11.30
2019-04-27T10:03:38.154Z,11.40
2019-04-27T10:06:08.237Z,11.30
2019-04-27T10:08:38.248Z,11.10
2019-04-27T10:11:08.018Z,11.10
2019-04-27T10:13:37.613Z,11.10
2019-04-27T10:16:07.396Z,11.60
2019-04-27T10:18:37.200Z,11.70
2019-04-27T10:21:07.053Z,11.90
2019-04-27T10:23:38.426Z,11.90
2019-04-27T10:26:08.396Z,11.90
2019-04-27T10:28:38.281Z,11.90
2019-04-27T10:31:08.051Z,11.90
2019-04-27T10:33:37.882Z,11.80
2019-04-27T10:36:07.660Z,11.90
2019-04-27T10:38:37.317Z,11.90
2019-04-27T10:41:07.666Z,11.90
2019-04-27T10:43:37.336Z,11.90
2019-04-27T10:46:07.168Z,12.00
2019-04-27T10:48:36.870Z,12.00
2019-04-27T10:51:07.372Z,12.10
2019-04-27T10:53:38.924Z,12.10
2019-04-27T10:56:07.689Z,12.20
2019-04-27T10:58:37.432Z,12.10
2019-04-27T11:01:08.844Z,12.10
2019-04-27T11:03:58.436Z,12.10
2019-04-27T11:06:29.737Z,11.90
2019-04-27T11:08:58.575Z,11.80
2019-04-27T11:11:28.325Z,11.70
2019-04-27T11:14:00.843Z,11.60
2019-04-27T11:16:29.622Z,11.60
2019-04-27T11:18:59.335Z,11.70
2019-04-27T11:21:29.258Z,11.80
2019-04-27T11:23:59.348Z,12.00
2019-04-27T11:26:29.261Z,12.10
2019-04-27T11:28:58.965Z,12.00
2019-04-27T11:31:28.770Z,11.90
2019-04-27T11:33:58.769Z,11.90
2019-04-27T11:36:30.189Z,11.90
2019-04-27T11:39:03.707Z,11.90
2019-04-27T11:41:35.036Z,11.90
2019-04-27T11:44:05.157Z,12.00
2019-04-27T11:46:34.970Z,12.10
2019-04-27T11:49:06.674Z,12.30
2019-04-27T11:51:36.629Z,12.40
2019-04-27T11:54:06.553Z,12.50
2019-04-27T11:56:36.318Z,12.40
2019-04-27T11:59:07.433Z,12.40
2019-04-27T12:01:37.196Z,12.30
2019-04-27T12:04:07.112Z,12.30
2019-04-27T12:06:38.146Z,12.20
2019-04-27T12:09:08.755Z,12.20
2019-04-27T12:11:41.452Z,12.30
2019-04-27T12:14:11.170Z,12.30
2019-04-27T12:16:40.987Z,12.00
2019-04-27T12:19:10.719Z,12.30
2019-04-27T12:21:40.435Z,12.30
2019-04-27T12:24:11.895Z,12.30
2019-04-27T12:26:43.631Z,12.20
2019-04-27T12:29:16.179Z,12.20
2019-04-27T12:31:49.128Z,12.20
2019-04-27T12:34:18.571Z,12.30
2019-04-27T12:36:48.360Z,12.20
2019-04-27T12:39:18.255Z,12.20
2019-04-27T12:41:48.374Z,12.20
2019-04-27T12:44:18.154Z,12.20
2019-04-27T12:46:47.790Z,12.30
2019-04-27T12:49:17.451Z,12.40
2019-04-27T12:51:47.305Z,12.60
2019-04-27T12:54:18.529Z,12.70
2019-04-27T12:57:06.041Z,13.00
2019-04-27T12:59:58.161Z,13.20
2019-04-27T13:02:30.534Z,13.40
2019-04-27T13:05:00.289Z,13.30
2019-04-27T13:07:30.827Z,13.40
2019-04-27T13:10:00.439Z,13.50
2019-04-27T13:12:30.174Z,13.80
2019-04-27T13:14:59.910Z,14.10
2019-04-27T13:17:29.718Z,14.20
2019-04-27T13:19:59.346Z,14.30
2019-04-27T13:22:30.734Z,14.30
2019-04-27T13:27:18.887Z,14.20
2019-04-27T13:29:50.068Z,14.10
2019-04-27T13:32:20.573Z,13.80
2019-04-27T13:34:50.256Z,13.50
2019-04-27T13:37:36.950Z,13.40
2019-04-27T13:40:09.629Z,13.50
2019-04-27T13:42:43.242Z,13.60
2019-04-27T13:45:31.767Z,13.60
2019-04-27T13:48:18.518Z,13.50
2019-04-27T13:50:49.885Z,13.60
2019-04-27T13:53:19.725Z,13.90
2019-04-27T13:55:49.398Z,14.10
2019-04-27T13:58:19.112Z,14.10
2019-04-27T14:00:48.835Z,14.20
2019-04-27T14:03:20.951Z,14.10
2019-04-27T14:05:52.609Z,14.00
2019-04-27T14:08:22.615Z,13.70
2019-04-27T14:10:52.418Z,13.60
2019-04-27T14:13:22.064Z,13.40
2019-04-27T14:15:51.598Z,13.30
2019-04-27T14:18:21.552Z,13.30
2019-04-27T14:20:51.288Z,13.20
2019-04-27T14:23:22.626Z,13.20
2019-04-27T14:25:51.525Z,13.30
2019-04-27T14:28:21.078Z,13.30
2019-04-27T14:30:50.934Z,13.30
2019-04-27T14:33:20.536Z,13.20
2019-04-27T14:35:50.249Z,13.10
2019-04-27T14:38:19.962Z,12.90
2019-04-27T14:40:50.387Z,12.90
2019-04-27T14:43:21.362Z,12.90
2019-04-27T14:45:51.409Z,12.80
2019-04-27T14:48:21.115Z,12.70
2019-04-27T14:50:51.014Z,12.80
2019-04-27T14:53:20.701Z,12.80
2019-04-27T14:55:51.776Z,12.80
2019-04-27T14:58:21.488Z,12.70
2019-04-27T15:00:52.798Z,12.70
2019-04-27T15:03:22.512Z,12.80
2019-04-27T15:05:53.929Z,12.90
2019-04-27T15:08:22.679Z,12.90
2019-04-27T15:10:53.949Z,13.00
2019-04-27T15:13:23.877Z,13.00
2019-04-27T15:15:53.734Z,13.00
2019-04-27T15:18:25.250Z,13.00
2019-04-27T15:20:58.558Z,13.10
2019-04-27T15:23:26.671Z,13.20
2019-04-27T15:25:56.974Z,13.30
2019-04-27T15:28:32.087Z,13.40
2019-04-27T15:31:03.585Z,13.40
2019-04-27T15:33:54.442Z,13.30
2019-04-27T15:36:39.702Z,13.20
2019-04-27T15:39:30.608Z,13.10
2019-04-27T15:42:07.873Z,13.00
2019-04-27T15:44:36.468Z,13.00
2019-04-27T15:47:08.493Z,13.00
2019-04-27T15:49:36.456Z,13.00
2019-04-27T15:52:06.247Z,13.10
2019-04-27T15:54:38.003Z,13.10
2019-04-27T15:57:10.592Z,13.10
2019-04-27T15:59:40.955Z,13.10
2019-04-27T16:02:15.333Z,13.10
2019-04-27T16:04:44.467Z,13.10
2019-04-27T16:07:12.409Z,13.10
2019-04-27T16:09:42.243Z,12.90
2019-04-27T16:12:12.941Z,12.90
2019-04-27T16:14:44.132Z,12.80
2019-04-27T16:17:13.206Z,12.80
2019-04-27T16:19:48.795Z,12.80
2019-04-27T16:22:18.306Z,12.70
2019-04-27T16:24:49.482Z,12.70
2019-04-27T16:27:19.948Z,12.60
2019-04-27T16:29:49.422Z,12.60
2019-04-27T16:32:19.194Z,12.60
2019-04-27T16:34:50.239Z,12.60
2019-04-27T16:37:22.522Z,12.70
2019-04-27T16:39:52.386Z,12.90
2019-04-27T16:42:22.199Z,12.90
2019-04-27T16:44:53.272Z,12.90
2019-04-27T16:47:24.610Z,12.80
2019-04-27T16:49:54.589Z,12.60
2019-04-27T16:52:27.441Z,12.50
2019-04-27T16:57:28.116Z,12.60
2019-04-27T17:00:00.986Z,12.70
2019-04-27T17:02:29.335Z,12.80
2019-04-27T17:04:59.866Z,12.80
2019-04-27T17:07:37.408Z,12.70
2019-04-27T17:10:00.817Z,12.70
2019-04-27T17:12:34.842Z,12.70
2019-04-27T17:12:40.068Z,12.50
2019-04-27T17:15:21.924Z,12.70
2019-04-27T17:17:59.412Z,12.70
2019-04-27T17:20:29.901Z,12.60
2019-04-27T17:23:00.744Z,12.70
2019-04-27T17:25:39.070Z,12.70
2019-04-27T17:28:06.971Z,12.60
2019-04-27T17:30:40.300Z,12.60
2019-04-27T17:33:11.733Z,12.50
2019-04-27T17:35:42.797Z,12.50
2019-04-27T17:38:15.718Z,12.50
2019-04-27T17:40:44.078Z,12.50
2019-04-27T17:43:14.088Z,12.50
2019-04-27T17:45:44.762Z,12.40
2019-04-27T17:48:14.441Z,12.30
2019-04-27T17:50:44.132Z,12.20
2019-04-27T17:53:13.864Z,12.00
2019-04-27T17:55:44.771Z,11.90
2019-04-27T17:58:14.511Z,11.90
2019-04-27T18:00:44.717Z,11.90
2019-04-27T18:03:17.583Z,11.90
2019-04-27T18:05:49.178Z,11.90
2019-04-27T18:08:18.391Z,11.90
2019-04-27T18:10:48.829Z,11.90
2019-04-27T18:13:25.210Z,11.90
2019-04-27T18:15:50.695Z,11.90
2019-04-27T18:18:28.113Z,11.80
2019-04-27T18:20:57.911Z,11.80
2019-04-27T18:23:29.422Z,11.80
2019-04-27T18:25:59.959Z,11.60
2019-04-27T18:28:32.030Z,11.20
2019-04-27T18:31:03.592Z,11.00
2019-04-27T18:33:37.256Z,10.70
2019-04-27T18:36:11.694Z,10.70
2019-04-27T18:38:39.213Z,10.60
2019-04-27T18:41:11.789Z,10.60
2019-04-27T18:43:46.399Z,10.50
2019-04-27T18:46:10.271Z,10.50
2019-04-27T18:48:49.235Z,10.50
2019-04-27T18:51:25.078Z,10.50
2019-04-27T18:53:59.758Z,10.60
2019-04-27T18:56:29.074Z,10.60
2019-04-27T18:58:59.989Z,10.60
2019-04-27T19:01:29.593Z,10.60
2019-04-27T19:03:59.462Z,10.60
2019-04-27T19:06:29.287Z,10.70
2019-04-27T19:08:59.145Z,10.70
2019-04-27T19:11:29.146Z,10.70
2019-04-27T19:13:59.940Z,10.70
2019-04-27T19:16:29.711Z,10.80
2019-04-27T19:18:59.492Z,10.80
2019-04-27T19:21:29.156Z,10.80
2019-04-27T19:23:58.893Z,10.90
2019-04-27T19:26:45.612Z,10.90
2019-04-27T19:29:19.923Z,10.90
2019-04-27T19:31:53.493Z,10.80
2019-04-27T19:34:23.577Z,10.70
2019-04-27T19:36:53.447Z,10.70
2019-04-27T19:39:25.508Z,10.70
2019-04-27T19:42:00.395Z,10.60
2019-04-27T19:44:25.837Z,10.60
2019-04-27T19:46:55.380Z,10.60
2019-04-27T19:49:25.478Z,10.50
2019-04-27T19:51:58.693Z,10.50
2019-04-27T19:54:30.186Z,10.50
2019-04-27T19:56:59.497Z,10.40
2019-04-27T19:59:33.425Z,10.40
2019-04-27T20:02:05.044Z,10.40
2019-04-27T20:04:36.549Z,10.40
2019-04-27T20:07:06.435Z,10.40
2019-04-27T20:09:40.607Z,10.30
2019-04-27T20:12:10.594Z,10.20
2019-04-27T20:14:56.359Z,10.10
2019-04-27T20:17:31.108Z,10.00
2019-04-27T20:20:01.128Z,9.90
2019-04-27T20:22:32.185Z,9.80
2019-04-27T20:25:02.138Z,9.80
2019-04-27T20:27:45.278Z,9.70
2019-04-27T20:30:06.384Z,9.70
2019-04-27T20:32:36.114Z,9.70
2019-04-27T20:35:07.143Z,9.70
2019-04-27T20:37:39.214Z,9.70
2019-04-27T20:40:11.180Z,9.70
2019-04-27T20:42:41.527Z,9.70
2019-04-27T20:45:12.035Z,9.70
2019-04-27T20:47:41.851Z,9.80
2019-04-27T20:50:11.809Z,9.80
2019-04-27T20:52:44.448Z,9.80
2019-04-27T20:55:14.277Z,9.80
2019-04-27T20:57:44.150Z,9.90
2019-04-27T21:00:15.574Z,9.90
2019-04-27T21:02:51.702Z,9.90
2019-04-27T21:05:31.653Z,9.90
2019-04-27T21:08:08.648Z,9.90
2019-04-27T21:10:38.408Z,9.90
2019-04-27T21:13:08.512Z,9.90
2019-04-27T21:15:38.279Z,9.90
2019-04-27T21:18:07.932Z,10.00
2019-04-27T21:20:41.181Z,10.00
2019-04-27T21:23:12.247Z,9.90
2019-04-27T21:25:42.307Z,9.90
2019-04-27T21:28:18.557Z,9.90
2019-04-27T21:30:43.667Z,9.90
2019-04-27T21:33:13.374Z,9.80
2019-04-27T21:35:45.073Z,9.90
2019-04-27T21:38:15.560Z,9.90
2019-04-27T21:40:45.244Z,9.80
2019-04-27T21:43:16.532Z,9.80
2019-04-27T21:45:45.430Z,9.70
2019-04-27T21:48:15.953Z,9.70
2019-04-27T21:50:45.783Z,9.70
2019-04-27T21:53:23.294Z,9.70
2019-04-27T21:56:03.211Z,9.70
2019-04-27T21:58:33.352Z,9.70
2019-04-27T22:01:17.138Z,9.70
2019-04-27T22:03:47.223Z,9.60
2019-04-27T22:06:16.941Z,9.70
2019-04-27T22:08:46.817Z,9.60
2019-04-27T22:11:16.574Z,9.70
2019-04-27T22:13:46.305Z,9.60
2019-04-27T22:16:16.080Z,9.70
2019-04-27T22:18:45.820Z,9.70
2019-04-27T22:21:17.056Z,9.70
2019-04-27T22:23:51.527Z,9.70
2019-04-27T22:26:21.448Z,9.60
2019-04-27T22:28:52.038Z,9.70
2019-04-27T22:31:22.128Z,9.60
2019-04-27T22:33:54.578Z,9.60
2019-04-27T22:36:23.770Z,9.60
2019-04-27T22:38:57.584Z,9.60
2019-04-27T22:41:46.647Z,9.60
2019-04-27T22:44:23.157Z,9.60
2019-04-27T22:46:54.382Z,9.60
2019-04-27T22:49:24.067Z,9.50
2019-04-27T22:51:53.620Z,9.50
2019-04-27T22:54:23.450Z,9.50
2019-04-27T22:56:54.731Z,9.50
2019-04-27T22:59:29.002Z,9.40
2019-04-27T23:02:15.965Z,9.40
2019-04-27T23:04:58.085Z,9.40
2019-04-27T23:07:27.973Z,9.40
2019-04-27T23:09:57.824Z,9.40
2019-04-27T23:12:31.545Z,9.40
2019-04-27T23:15:02.551Z,9.40
2019-04-27T23:17:41.763Z,9.30
2019-04-27T23:20:11.703Z,9.30
2019-04-27T23:22:41.456Z,9.30
2019-04-27T23:25:11.388Z,9.30
2019-04-27T23:27:41.154Z,9.30
2019-04-27T23:30:14.001Z,9.30
2019-04-27T23:32:46.087Z,9.40
2019-04-27T23:35:16.008Z,9.40
2019-04-27T23:37:45.893Z,9.40
2019-04-27T23:40:15.962Z,9.30
2019-04-27T23:42:45.755Z,9.30
2019-04-27T23:45:16.212Z,9.20
2019-04-27T23:47:47.052Z,9.20
2019-04-27T23:50:17.042Z,9.10
2019-04-27T23:53:03.636Z,9.10
2019-04-27T23:55:34.945Z,9.10
2019-04-27T23:58:05.690Z,9.00
